createdAt,value
2023-03-06T00:01:59.362Z,525.00
2023-03-06T00:05:59.768Z,523.00
2023-03-06T00:09:59.910Z,523.00
2023-03-06T00:13:59.906Z,524.00
2023-03-06T00:18:00.290Z,524.00
2023-03-06T00:22:00.397Z,523.00
2023-03-06T00:26:00.495Z,527.00
2023-03-06T00:30:00.629Z,522.00
2023-03-06T00:34:00.824Z,524.00
2023-03-06T00:38:00.935Z,524.00
2023-03-06T00:42:01.323Z,521.00
2023-03-06T00:46:01.547Z,524.00
2023-03-06T00:50:01.566Z,521.00
2023-03-06T00:54:01.748Z,523.00
2023-03-06T00:58:01.854Z,521.00
2023-03-06T01:02:02.404Z,521.00
2023-03-06T01:06:03.181Z,523.00
2023-03-06T01:10:02.579Z,523.00
2023-03-06T01:14:02.725Z,525.00
2023-03-06T01:18:02.591Z,522.00
2023-03-06T01:22:02.436Z,525.00
2023-03-06T01:26:02.529Z,521.00
2023-03-06T01:30:02.569Z,519.00
2023-03-06T01:34:02.506Z,520.00
2023-03-06T01:38:02.306Z,519.00
2023-03-06T01:42:02.230Z,524.00
2023-03-06T01:46:02.243Z,519.00
2023-03-06T01:50:02.569Z,522.00
2023-03-06T01:54:02.522Z,515.00
2023-03-06T01:58:02.398Z,522.00
2023-03-06T02:02:02.569Z,523.00
2023-03-06T02:06:02.314Z,525.00
2023-03-06T02:10:02.251Z,519.00
2023-03-06T02:14:02.192Z,525.00
2023-03-06T02:18:02.205Z,520.00
2023-03-06T02:22:02.131Z,520.00
2023-03-06T02:26:02.105Z,518.00
2023-03-06T02:30:02.021Z,525.00
2023-03-06T02:34:02.058Z,523.00
2023-03-06T02:38:01.972Z,521.00
2023-03-06T02:42:01.988Z,519.00
2023-03-06T02:46:01.923Z,523.00
2023-03-06T02:50:01.864Z,524.00
2023-03-06T02:54:01.811Z,520.00
2023-03-06T02:58:01.859Z,523.00
2023-03-06T03:02:01.742Z,520.00
2023-03-06T03:06:01.672Z,527.00
2023-03-06T03:10:01.837Z,523.00
2023-03-06T03:14:01.823Z,522.00
2023-03-06T03:18:01.931Z,527.00
2023-03-06T03:22:01.992Z,526.00
2023-03-06T03:26:02.089Z,523.00
2023-03-06T03:30:02.226Z,523.00
2023-03-06T03:34:02.426Z,524.00
2023-03-06T03:38:02.298Z,526.00
2023-03-06T03:42:02.239Z,523.00
2023-03-06T03:46:02.117Z,523.00
2023-03-06T03:50:02.227Z,524.00
2023-03-06T03:54:02.208Z,524.00
2023-03-06T03:58:02.002Z,528.00
2023-03-06T04:02:02.070Z,522.00
2023-03-06T04:06:02.127Z,528.00
2023-03-06T04:10:01.872Z,523.00
2023-03-06T04:14:02.128Z,526.00
2023-03-06T04:18:02.010Z,523.00
2023-03-06T04:22:01.776Z,522.00
2023-03-06T04:26:01.904Z,521.00
2023-03-06T04:30:01.892Z,526.00
2023-03-06T04:34:01.675Z,523.00
2023-03-06T04:38:01.789Z,523.00
2023-03-06T04:42:01.877Z,524.00
2023-03-06T04:46:01.611Z,522.00
2023-03-06T04:50:01.678Z,523.00
2023-03-06T04:54:02.041Z,523.00
2023-03-06T04:58:01.795Z,529.00
2023-03-06T05:02:02.137Z,523.00
2023-03-06T05:06:02.137Z,500.00
2023-03-06T05:10:02.120Z,500.00
2023-03-06T05:14:02.251Z,505.00
2023-03-06T05:18:02.244Z,504.00
2023-03-06T05:22:02.010Z,503.00
2023-03-06T05:26:02.162Z,503.00
2023-03-06T05:30:02.086Z,506.00
2023-03-06T05:34:01.919Z,513.00
2023-03-06T05:38:01.986Z,521.00
2023-03-06T05:42:02.009Z,529.00
2023-03-06T05:46:01.862Z,530.00
2023-03-06T05:50:01.943Z,535.00
2023-03-06T05:54:01.866Z,532.00
2023-03-06T05:58:01.898Z,537.00
2023-03-06T06:02:02.166Z,540.00
2023-03-06T06:06:02.483Z,539.00
2023-03-06T06:10:03.830Z,546.00
2023-03-06T06:14:02.636Z,538.00
2023-03-06T06:18:02.639Z,541.00
2023-03-06T06:22:02.386Z,540.00
2023-03-06T06:26:02.590Z,537.00
2023-03-06T06:30:02.478Z,541.00
2023-03-06T06:34:02.448Z,550.00
2023-03-06T06:38:02.516Z,570.00
2023-03-06T06:42:21.658Z,544.00
2023-03-06T06:46:31.480Z,536.00
2023-03-06T06:50:03.312Z,516.00
2023-03-06T06:54:02.135Z,501.00
2023-03-06T06:58:02.260Z,506.00
2023-03-06T07:02:02.017Z,504.00
2023-03-06T07:06:01.993Z,508.00
2023-03-06T07:10:01.936Z,505.00
2023-03-06T07:14:02.116Z,509.00
2023-03-06T07:18:02.261Z,512.00
2023-03-06T07:22:02.188Z,523.00
2023-03-06T07:26:02.488Z,520.00
2023-03-06T07:30:02.582Z,523.00
2023-03-06T07:34:04.830Z,522.00
2023-03-06T07:38:02.909Z,500.00
2023-03-06T07:42:03.015Z,570.00
2023-03-06T07:46:03.041Z,547.00
2023-03-06T07:50:03.318Z,538.00
2023-03-06T07:54:03.284Z,541.00
2023-03-06T07:58:03.616Z,550.00
2023-03-06T08:02:03.672Z,555.00
2023-03-06T08:06:03.612Z,562.00
2023-03-06T08:10:04.013Z,562.00
2023-03-06T08:14:04.785Z,571.00
2023-03-06T08:18:03.942Z,573.00
2023-03-06T08:22:03.935Z,574.00
2023-03-06T08:26:03.637Z,574.00
2023-03-06T08:30:03.826Z,577.00
2023-03-06T08:34:05.097Z,590.00
2023-03-06T08:38:03.582Z,639.00
2023-03-06T08:42:04.610Z,757.00
2023-03-06T08:46:03.738Z,660.00
2023-03-06T08:50:03.546Z,1325.00
2023-03-06T08:54:03.691Z,927.00
2023-03-06T08:58:03.608Z,836.00
2023-03-06T09:02:03.561Z,807.00
2023-03-06T09:06:03.880Z,778.00
2023-03-06T09:10:04.043Z,748.00
2023-03-06T09:14:04.052Z,738.00
2023-03-06T09:18:04.472Z,720.00
2023-03-06T09:22:04.516Z,685.00
2023-03-06T09:26:04.568Z,664.00
2023-03-06T09:30:04.897Z,624.00
2023-03-06T09:34:04.919Z,619.00
2023-03-06T09:38:04.902Z,586.00
2023-03-06T09:42:05.170Z,530.00
2023-03-06T09:46:05.704Z,566.00
2023-03-06T09:50:05.233Z,526.00
2023-03-06T09:54:05.569Z,528.00
2023-03-06T09:58:07.353Z,549.00
2023-03-06T10:02:05.627Z,578.00
2023-03-06T10:06:05.811Z,592.00
2023-03-06T10:10:06.007Z,607.00
2023-03-06T10:14:06.461Z,615.00
2023-03-06T10:18:06.307Z,632.00
2023-03-06T10:22:06.171Z,637.00
2023-03-06T10:26:06.263Z,634.00
2023-03-06T10:30:06.210Z,628.00
2023-03-06T10:34:06.732Z,634.00
2023-03-06T10:38:06.332Z,645.00
2023-03-06T10:42:06.514Z,584.00
2023-03-06T10:46:06.672Z,567.00
2023-03-06T10:50:08.368Z,555.00
2023-03-06T10:54:06.658Z,562.00
2023-03-06T10:58:06.700Z,560.00
2023-03-06T11:02:06.516Z,561.00
2023-03-06T11:06:06.675Z,598.00
2023-03-06T11:10:14.846Z,635.00
2023-03-06T11:14:06.733Z,653.00
2023-03-06T11:18:06.935Z,698.00
2023-03-06T11:22:07.046Z,809.00
2023-03-06T11:26:07.037Z,636.00
2023-03-06T11:30:07.222Z,612.00
2023-03-06T11:34:07.403Z,582.00
2023-03-06T11:38:07.594Z,684.00
2023-03-06T11:42:07.846Z,639.00
2023-03-06T11:46:07.799Z,635.00
2023-03-06T11:50:07.938Z,695.00
2023-03-06T11:54:07.873Z,658.00
2023-03-06T11:58:07.858Z,679.00
2023-03-06T12:02:07.903Z,646.00
2023-03-06T12:06:07.799Z,646.00
2023-03-06T12:10:07.780Z,629.00
2023-03-06T12:14:07.741Z,658.00
2023-03-06T12:18:07.799Z,692.00
2023-03-06T12:22:07.643Z,666.00
2023-03-06T12:26:07.637Z,659.00
2023-03-06T12:30:07.593Z,607.00
2023-03-06T12:34:07.645Z,582.00
2023-03-06T12:38:07.852Z,577.00
2023-03-06T12:42:11.473Z,573.00
2023-03-06T12:46:09.064Z,527.00
2023-03-06T12:50:08.056Z,527.00
2023-03-06T12:54:08.110Z,539.00
2023-03-06T12:58:08.427Z,678.00
2023-03-06T13:02:08.481Z,605.00
2023-03-06T13:06:08.822Z,586.00
2023-03-06T13:10:08.577Z,604.00
2023-03-06T13:14:08.595Z,638.00
2023-03-06T13:18:08.680Z,605.00
2023-03-06T13:22:08.901Z,611.00
2023-03-06T13:26:09.131Z,491.00
2023-03-06T13:30:09.216Z,546.00
2023-03-06T13:34:09.389Z,534.00
2023-03-06T13:38:09.304Z,548.00
2023-03-06T13:42:09.331Z,551.00
2023-03-06T13:46:09.249Z,571.00
2023-03-06T13:50:09.272Z,563.00
2023-03-06T13:54:09.392Z,581.00
2023-03-06T13:58:09.356Z,599.00
2023-03-06T14:02:09.138Z,611.00
2023-03-06T14:06:09.056Z,622.00
2023-03-06T14:10:09.383Z,628.00
2023-03-06T14:14:09.014Z,694.00
2023-03-06T14:18:08.924Z,657.00
2023-03-06T14:22:09.181Z,651.00
2023-03-06T14:26:09.208Z,737.00
2023-03-06T14:30:09.314Z,878.00
2023-03-06T14:34:09.463Z,945.00
2023-03-06T14:38:09.622Z,1043.00
2023-03-06T14:42:09.841Z,1656.00
2023-03-06T14:46:10.149Z,1608.00
2023-03-06T14:50:10.000Z,1567.00
2023-03-06T14:54:10.154Z,1412.00
2023-03-06T14:58:10.045Z,1325.00
2023-03-06T15:02:09.959Z,1266.00
2023-03-06T15:06:10.010Z,1263.00
2023-03-06T15:10:09.869Z,1226.00
2023-03-06T15:14:09.867Z,1114.00
2023-03-06T15:18:09.783Z,1098.00
2023-03-06T15:22:09.804Z,1077.00
2023-03-06T15:26:09.741Z,995.00
2023-03-06T15:30:09.667Z,1045.00
2023-03-06T15:34:09.663Z,1078.00
2023-03-06T15:38:09.718Z,1099.00
2023-03-06T15:42:09.647Z,1091.00
2023-03-06T15:46:09.790Z,1118.00
2023-03-06T15:50:09.791Z,1138.00
2023-03-06T15:54:12.666Z,1121.00
2023-03-06T15:58:09.638Z,1146.00
2023-03-06T16:02:09.590Z,1151.00
2023-03-06T16:06:09.619Z,1110.00
2023-03-06T16:10:09.656Z,1106.00
2023-03-06T16:14:09.551Z,1117.00
2023-03-06T16:18:09.573Z,1109.00
2023-03-06T16:22:09.410Z,1118.00
2023-03-06T16:26:09.331Z,1110.00
2023-03-06T16:30:09.411Z,1089.00
2023-03-06T16:34:09.282Z,1080.00
2023-03-06T16:38:09.265Z,1067.00
2023-03-06T16:42:09.389Z,1059.00
2023-03-06T16:46:09.156Z,1055.00
2023-03-06T16:50:09.577Z,1050.00
2023-03-06T16:54:09.391Z,1037.00
2023-03-06T16:58:09.060Z,1031.00
2023-03-06T17:02:09.097Z,1030.00
2023-03-06T17:06:09.151Z,1024.00
2023-03-06T17:10:09.399Z,1015.00
2023-03-06T17:14:09.784Z,1001.00
2023-03-06T17:18:09.778Z,997.00
2023-03-06T17:22:09.765Z,984.00
2023-03-06T17:26:09.510Z,981.00
2023-03-06T17:30:09.415Z,961.00
2023-03-06T17:34:09.389Z,962.00
2023-03-06T17:38:09.358Z,953.00
2023-03-06T17:42:09.288Z,953.00
2023-03-06T17:46:09.456Z,936.00
2023-03-06T17:50:09.249Z,939.00
2023-03-06T17:54:09.806Z,926.00
2023-03-06T17:58:12.099Z,927.00
2023-03-06T18:02:09.553Z,921.00
2023-03-06T18:06:09.616Z,930.00
2023-03-06T18:10:09.703Z,929.00
2023-03-06T18:14:09.432Z,929.00
2023-03-06T18:18:09.451Z,918.00
2023-03-06T18:22:09.572Z,911.00
2023-03-06T18:26:09.903Z,911.00
2023-03-06T18:30:09.355Z,906.00
2023-03-06T18:34:09.349Z,901.00
2023-03-06T18:38:09.260Z,902.00
2023-03-06T18:42:09.214Z,1020.00
2023-03-06T18:46:09.268Z,1004.00
2023-03-06T18:50:09.246Z,882.00
2023-03-06T18:54:09.092Z,793.00
2023-03-06T18:58:09.019Z,772.00
2023-03-06T19:02:08.934Z,731.00
2023-03-06T19:06:09.092Z,656.00
2023-03-06T19:10:09.226Z,642.00
2023-03-06T19:14:08.922Z,630.00
2023-03-06T19:18:09.071Z,629.00
2023-03-06T19:22:08.850Z,763.00
2023-03-06T19:26:09.282Z,774.00
2023-03-06T19:30:09.021Z,779.00
2023-03-06T19:34:09.081Z,796.00
2023-03-06T19:38:09.388Z,791.00
2023-03-06T19:42:09.337Z,785.00
2023-03-06T19:46:09.390Z,783.00
2023-03-06T19:50:09.493Z,767.00
2023-03-06T19:54:09.727Z,771.00
2023-03-06T19:58:10.055Z,770.00
2023-03-06T20:02:09.685Z,764.00
2023-03-06T20:06:09.818Z,766.00
2023-03-06T20:10:09.933Z,761.00
2023-03-06T20:14:10.049Z,765.00
2023-03-06T20:18:10.139Z,758.00
2023-03-06T20:22:10.297Z,762.00
2023-03-06T20:26:10.416Z,754.00
2023-03-06T20:30:10.876Z,747.00
2023-03-06T20:34:10.960Z,751.00
2023-03-06T20:38:11.103Z,753.00
2023-03-06T20:42:11.134Z,743.00
2023-03-06T20:46:11.208Z,742.00
2023-03-06T20:50:11.485Z,752.00
2023-03-06T20:54:11.575Z,741.00
2023-03-06T20:58:11.662Z,738.00
2023-03-06T21:02:12.101Z,725.00
2023-03-06T21:06:11.996Z,737.00
2023-03-06T21:10:12.133Z,733.00
2023-03-06T21:14:12.306Z,734.00
2023-03-06T21:18:12.589Z,732.00
2023-03-06T21:22:12.812Z,731.00
2023-03-06T21:26:13.153Z,730.00
2023-03-06T21:30:13.063Z,715.00
2023-03-06T21:34:13.526Z,734.00
2023-03-06T21:38:13.673Z,720.00
2023-03-06T21:42:13.790Z,720.00
2023-03-06T21:46:13.913Z,734.00
2023-03-06T21:50:13.807Z,716.00
2023-03-06T21:54:14.116Z,703.00
2023-03-06T21:58:13.980Z,713.00
2023-03-06T22:02:13.661Z,720.00
2023-03-06T22:06:13.859Z,710.00
2023-03-06T22:10:13.660Z,707.00
2023-03-06T22:14:13.819Z,695.00
2023-03-06T22:18:13.622Z,703.00
2023-03-06T22:22:13.592Z,704.00
2023-03-06T22:26:13.662Z,694.00
2023-03-06T22:30:13.494Z,700.00
2023-03-06T22:34:13.405Z,705.00
2023-03-06T22:38:13.433Z,708.00
2023-03-06T22:42:13.340Z,698.00
2023-03-06T22:46:13.317Z,697.00
2023-03-06T22:50:13.285Z,691.00
2023-03-06T22:54:13.236Z,685.00
2023-03-06T22:58:13.170Z,697.00
2023-03-06T23:02:13.158Z,689.00
2023-03-06T23:06:13.301Z,683.00
2023-03-06T23:10:13.449Z,685.00
2023-03-06T23:14:13.482Z,686.00
2023-03-06T23:18:13.453Z,676.00
2023-03-06T23:22:13.635Z,672.00
2023-03-06T23:26:13.350Z,685.00
2023-03-06T23:30:13.273Z,673.00
2023-03-06T23:34:13.768Z,670.00
2023-03-06T23:38:13.436Z,666.00
2023-03-06T23:42:13.209Z,683.00
2023-03-06T23:46:13.179Z,666.00
2023-03-06T23:50:13.106Z,671.00
2023-03-06T23:54:13.156Z,666.00
2023-03-06T23:58:13.139Z,671.00
